createdAt,value
2022-08-23T00:01:21.223Z,56.65
2022-08-23T00:03:53.924Z,56.70
2022-08-23T00:06:22.721Z,56.82
2022-08-23T00:08:53.336Z,56.62
2022-08-23T00:11:30.867Z,57.20
2022-08-23T00:14:00.684Z,56.99
2022-08-23T00:16:29.316Z,57.14
2022-08-23T00:18:57.377Z,56.88
2022-08-23T00:21:25.328Z,56.73
2022-08-23T00:23:54.687Z,56.48
2022-08-23T00:26:23.286Z,56.41
2022-08-23T00:28:51.487Z,56.05
2022-08-23T00:31:21.028Z,55.97
2022-08-23T00:33:49.013Z,56.00
2022-08-23T00:36:17.527Z,56.15
2022-08-23T00:38:45.642Z,56.51
2022-08-23T00:41:15.029Z,56.68
2022-08-23T00:44:00.927Z,56.79
2022-08-23T00:47:00.214Z,57.03
2022-08-23T00:49:29.581Z,56.92
2022-08-23T00:52:02.796Z,56.87
2022-08-23T00:54:32.460Z,57.03
2022-08-23T00:57:06.615Z,57.26
2022-08-23T00:59:35.036Z,57.12
2022-08-23T01:02:04.277Z,56.83
2022-08-23T01:04:35.463Z,56.93
2022-08-23T01:07:08.681Z,56.88
2022-08-23T01:09:39.044Z,56.73
2022-08-23T01:12:15.171Z,56.91
2022-08-23T01:14:49.074Z,56.78
2022-08-23T01:17:21.407Z,57.43
2022-08-23T01:19:53.536Z,57.28
2022-08-23T01:22:28.412Z,57.63
2022-08-23T01:25:07.203Z,58.03
2022-08-23T01:27:43.156Z,58.17
2022-08-23T01:30:17.064Z,58.08
2022-08-23T01:32:50.045Z,58.32
2022-08-23T01:37:52.957Z,59.02
2022-08-23T01:40:23.182Z,59.34
2022-08-23T01:42:51.325Z,59.38
2022-08-23T01:45:19.618Z,59.29
2022-08-23T01:47:47.687Z,59.53
2022-08-23T01:50:16.388Z,59.69
2022-08-23T01:52:46.697Z,59.99
2022-08-23T01:55:17.686Z,60.31
2022-08-23T01:57:50.213Z,60.49
2022-08-23T02:00:21.926Z,61.18
2022-08-23T02:02:50.043Z,61.56
2022-08-23T02:05:19.241Z,62.16
2022-08-23T02:07:48.831Z,62.24
2022-08-23T02:10:19.255Z,62.24
2022-08-23T02:12:48.873Z,62.22
2022-08-23T02:15:18.738Z,61.94
2022-08-23T02:17:48.616Z,62.51
2022-08-23T02:20:17.063Z,62.45
2022-08-23T02:22:45.059Z,62.58
2022-08-23T02:25:13.058Z,62.68
2022-08-23T02:27:44.118Z,62.75
2022-08-23T02:30:15.570Z,63.01
2022-08-23T02:32:44.109Z,62.78
2022-08-23T02:35:13.374Z,62.47
2022-08-23T02:37:41.355Z,61.79
2022-08-23T02:40:10.871Z,61.69
2022-08-23T02:42:39.739Z,61.58
2022-08-23T02:45:09.829Z,61.64
2022-08-23T02:47:46.812Z,61.92
2022-08-23T02:50:26.562Z,62.45
2022-08-23T02:52:54.984Z,63.14
2022-08-23T02:55:23.748Z,63.22
2022-08-23T02:57:51.710Z,63.53
2022-08-23T03:00:20.639Z,63.46
2022-08-23T03:02:52.827Z,63.49
2022-08-23T03:05:21.169Z,63.57
2022-08-23T03:07:49.213Z,63.24
2022-08-23T03:10:17.532Z,62.92
2022-08-23T03:12:54.176Z,62.92
2022-08-23T03:15:22.210Z,62.85
2022-08-23T03:17:50.408Z,62.78
2022-08-23T03:20:20.700Z,62.69
2022-08-23T03:22:54.698Z,62.78
2022-08-23T03:25:25.531Z,62.44
2022-08-23T03:28:25.915Z,62.05
2022-08-23T03:30:54.677Z,62.16
2022-08-23T03:33:23.750Z,61.85
2022-08-23T03:35:53.345Z,61.91
2022-08-23T03:38:21.344Z,61.79
2022-08-23T03:40:52.527Z,61.99
2022-08-23T03:43:20.899Z,61.67
2022-08-23T03:45:49.356Z,61.73
2022-08-23T03:48:17.758Z,61.85
2022-08-23T03:50:46.771Z,61.60
2022-08-23T03:53:17.369Z,61.81
2022-08-23T03:55:48.208Z,62.12
2022-08-23T03:58:19.327Z,61.83
2022-08-23T04:00:47.399Z,62.06
2022-08-23T04:03:15.705Z,61.83
2022-08-23T04:06:14.161Z,61.59
2022-08-23T04:08:44.066Z,61.89
2022-08-23T04:11:14.534Z,61.69
2022-08-23T04:13:53.322Z,62.12
2022-08-23T04:16:21.550Z,62.67
2022-08-23T04:18:50.735Z,63.29
2022-08-23T04:21:24.702Z,63.34
2022-08-23T04:23:54.234Z,63.95
2022-08-23T04:26:23.643Z,64.45
2022-08-23T04:28:56.305Z,64.78
2022-08-23T04:31:26.206Z,64.42
2022-08-23T04:33:55.650Z,64.86
2022-08-23T04:36:25.311Z,65.21
2022-08-23T04:38:54.867Z,65.55
2022-08-23T04:41:40.313Z,65.43
2022-08-23T04:44:08.296Z,65.45
2022-08-23T04:46:36.655Z,65.39
2022-08-23T04:49:04.964Z,65.48
2022-08-23T04:51:33.373Z,65.35
2022-08-23T04:54:02.837Z,65.37
2022-08-23T04:56:37.378Z,65.21
2022-08-23T04:59:06.053Z,65.20
2022-08-23T05:01:35.001Z,65.27
2022-08-23T05:04:04.013Z,65.28
2022-08-23T05:06:33.281Z,65.43
2022-08-23T05:09:02.785Z,65.18
2022-08-23T05:11:33.689Z,65.45
2022-08-23T05:14:01.886Z,65.18
2022-08-23T05:16:30.664Z,65.00
2022-08-23T05:19:04.087Z,65.03
2022-08-23T05:21:34.755Z,65.54
2022-08-23T05:24:05.324Z,65.12
2022-08-23T05:26:33.804Z,65.10
2022-08-23T05:29:01.948Z,64.74
2022-08-23T05:31:36.404Z,64.65
2022-08-23T05:34:05.199Z,64.37
2022-08-23T05:37:02.405Z,64.73
2022-08-23T05:39:41.241Z,64.78
2022-08-23T05:42:15.010Z,64.82
2022-08-23T05:44:45.485Z,64.42
2022-08-23T05:47:16.425Z,64.38
2022-08-23T05:49:52.955Z,64.21
2022-08-23T05:52:21.715Z,64.07
2022-08-23T05:54:51.117Z,64.05
2022-08-23T05:57:38.778Z,63.89
2022-08-23T06:00:11.746Z,63.92
2022-08-23T06:02:46.919Z,64.05
2022-08-23T06:05:15.426Z,63.82
2022-08-23T06:07:45.496Z,64.18
2022-08-23T06:10:16.559Z,63.68
2022-08-23T06:12:50.162Z,64.19
2022-08-23T06:15:18.337Z,64.07
2022-08-23T06:17:47.702Z,64.44
2022-08-23T06:20:16.625Z,64.68
2022-08-23T06:23:07.963Z,64.61
2022-08-23T06:25:39.850Z,64.84
2022-08-23T06:28:12.048Z,64.54
2022-08-23T06:30:43.511Z,64.63
2022-08-23T06:33:44.318Z,64.53
2022-08-23T06:36:37.384Z,64.25
2022-08-23T06:39:22.574Z,64.26
2022-08-23T06:42:37.434Z,64.33
2022-08-23T06:45:06.918Z,63.90
2022-08-23T06:47:48.172Z,63.73
2022-08-23T06:50:16.183Z,63.46
2022-08-23T06:53:06.998Z,62.97
2022-08-23T06:55:44.068Z,62.77
2022-08-23T06:58:42.201Z,61.28
2022-08-23T07:01:48.710Z,60.52
2022-08-23T07:04:25.713Z,60.87
2022-08-23T07:07:11.635Z,60.01
2022-08-23T07:09:41.656Z,59.82
2022-08-23T07:12:11.012Z,59.62
2022-08-23T07:14:44.190Z,59.40
2022-08-23T07:17:14.480Z,58.61
2022-08-23T07:19:44.124Z,58.53
2022-08-23T07:22:12.640Z,57.56
2022-08-23T07:24:42.956Z,56.60
2022-08-23T07:27:12.448Z,56.81
2022-08-23T07:30:09.788Z,56.72
2022-08-23T07:32:40.656Z,57.12
2022-08-23T07:35:29.024Z,56.47
2022-08-23T07:38:00.114Z,56.93
2022-08-23T07:40:38.777Z,56.97
2022-08-23T07:43:08.965Z,56.87
2022-08-23T07:45:40.687Z,56.74
2022-08-23T07:48:12.004Z,56.70
2022-08-23T07:51:01.291Z,57.13
2022-08-23T07:53:37.727Z,56.21
2022-08-23T07:56:08.625Z,56.11
2022-08-23T07:59:02.830Z,55.42
2022-08-23T08:01:43.670Z,55.16
2022-08-23T08:04:12.568Z,55.05
2022-08-23T08:06:59.796Z,56.03
2022-08-23T08:09:35.545Z,55.86
2022-08-23T08:12:03.815Z,56.08
2022-08-23T08:14:32.911Z,55.84
2022-08-23T08:17:06.830Z,54.69
2022-08-23T08:19:55.083Z,54.73
2022-08-23T08:22:28.642Z,54.06
2022-08-23T08:25:09.081Z,54.23
2022-08-23T08:27:38.436Z,54.37
2022-08-23T08:30:09.146Z,54.89
2022-08-23T08:32:47.065Z,54.46
2022-08-23T08:35:16.443Z,55.03
2022-08-23T08:37:44.842Z,54.60
2022-08-23T08:40:13.208Z,54.55
2022-08-23T08:42:54.888Z,53.90
2022-08-23T08:45:26.292Z,54.05
2022-08-23T08:48:03.867Z,53.68
2022-08-23T08:50:43.779Z,53.48
2022-08-23T08:53:16.785Z,53.47
2022-08-23T08:56:09.306Z,54.22
2022-08-23T08:58:47.112Z,53.74
2022-08-23T09:01:17.355Z,53.58
2022-08-23T09:03:48.331Z,53.56
2022-08-23T09:06:25.692Z,53.39
2022-08-23T09:09:09.918Z,53.49
2022-08-23T09:11:52.720Z,53.04
2022-08-23T09:14:45.923Z,52.91
2022-08-23T09:17:21.342Z,52.33
2022-08-23T09:19:57.062Z,52.10
2022-08-23T09:22:33.787Z,51.61
2022-08-23T09:25:02.028Z,51.76
2022-08-23T09:27:40.068Z,51.64
2022-08-23T09:30:10.112Z,50.69
2022-08-23T09:32:41.216Z,51.03
2022-08-23T09:35:17.332Z,51.40
2022-08-23T09:37:58.999Z,51.13
2022-08-23T09:40:33.902Z,50.59
2022-08-23T09:43:13.952Z,51.09
2022-08-23T09:45:53.930Z,49.57
2022-08-23T09:48:39.048Z,48.64
2022-08-23T09:51:19.230Z,46.47
2022-08-23T09:53:51.368Z,47.44
2022-08-23T09:56:26.413Z,46.14
2022-08-23T09:58:55.568Z,45.21
2022-08-23T10:01:39.292Z,46.08
2022-08-23T10:04:16.141Z,45.85
2022-08-23T10:06:47.104Z,46.09
2022-08-23T10:09:26.500Z,46.01
2022-08-23T10:11:56.529Z,45.72
2022-08-23T10:14:30.059Z,46.20
2022-08-23T10:17:09.045Z,45.68
2022-08-23T10:19:47.743Z,46.23
2022-08-23T10:22:21.113Z,45.91
2022-08-23T10:25:19.527Z,46.37
2022-08-23T10:28:13.902Z,46.59
2022-08-23T10:30:50.815Z,46.36
2022-08-23T10:33:25.618Z,45.79
2022-08-23T10:36:03.738Z,46.12
2022-08-23T10:38:43.874Z,46.75
2022-08-23T10:41:24.847Z,46.07
2022-08-23T10:44:07.735Z,46.12
2022-08-23T10:46:43.814Z,45.90
2022-08-23T10:49:14.186Z,45.42
2022-08-23T10:51:46.157Z,44.44
2022-08-23T10:54:24.163Z,45.03
2022-08-23T10:56:59.032Z,44.84
2022-08-23T10:59:28.507Z,44.68
2022-08-23T11:02:08.184Z,43.99
2022-08-23T11:04:47.739Z,44.41
2022-08-23T11:07:29.239Z,44.18
2022-08-23T11:10:16.693Z,43.23
2022-08-23T11:12:58.444Z,43.77
2022-08-23T11:15:34.445Z,43.59
2022-08-23T11:18:08.665Z,44.08
2022-08-23T11:21:34.093Z,44.33
2022-08-23T11:24:50.315Z,43.73
2022-08-23T11:27:40.453Z,42.29
2022-08-23T11:30:44.987Z,42.24
2022-08-23T11:33:24.353Z,42.00
2022-08-23T11:35:56.508Z,42.17
2022-08-23T11:39:03.119Z,42.22
2022-08-23T11:41:34.085Z,42.42
2022-08-23T11:44:28.367Z,41.90
2022-08-23T11:47:01.241Z,41.77
2022-08-23T11:50:04.522Z,41.30
2022-08-23T11:53:03.100Z,41.73
2022-08-23T11:55:55.554Z,41.35
2022-08-23T11:58:27.601Z,42.03
2022-08-23T12:01:06.784Z,41.01
2022-08-23T12:03:44.640Z,41.75
2022-08-23T12:06:43.011Z,42.63
2022-08-23T12:09:53.670Z,41.80
2022-08-23T12:12:27.746Z,41.95
2022-08-23T12:14:58.077Z,42.69
2022-08-23T12:18:03.379Z,40.87
2022-08-23T12:20:34.533Z,42.11
2022-08-23T12:23:15.215Z,42.16
2022-08-23T12:25:43.968Z,41.50
2022-08-23T12:28:31.449Z,41.21
2022-08-23T12:31:07.811Z,41.80
2022-08-23T12:33:52.287Z,40.35
2022-08-23T12:36:30.131Z,39.53
2022-08-23T12:39:04.914Z,38.35
2022-08-23T12:41:37.092Z,38.68
2022-08-23T12:44:08.350Z,39.54
2022-08-23T12:46:42.516Z,38.37
2022-08-23T12:49:22.982Z,38.13
2022-08-23T12:51:56.643Z,38.31
2022-08-23T12:54:34.572Z,38.30
2022-08-23T12:57:10.345Z,39.09
2022-08-23T12:59:47.366Z,38.67
2022-08-23T13:02:21.440Z,39.51
2022-08-23T13:04:49.438Z,38.36
2022-08-23T13:07:23.101Z,39.00
2022-08-23T13:09:53.655Z,39.18
2022-08-23T13:12:24.272Z,39.41
2022-08-23T13:14:54.500Z,39.08
2022-08-23T13:17:32.993Z,39.73
2022-08-23T13:20:23.777Z,40.02
2022-08-23T13:23:02.904Z,40.12
2022-08-23T13:25:34.831Z,40.07
2022-08-23T13:28:05.975Z,39.04
2022-08-23T13:30:36.532Z,39.42
2022-08-23T13:33:22.911Z,38.31
2022-08-23T13:35:53.820Z,38.03
2022-08-23T13:38:27.055Z,37.38
2022-08-23T13:41:01.981Z,38.06
2022-08-23T13:43:34.896Z,36.69
2022-08-23T13:46:15.801Z,37.61
2022-08-23T13:48:52.081Z,36.56
2022-08-23T13:51:29.931Z,37.20
2022-08-23T13:54:01.338Z,37.58
2022-08-23T13:56:31.288Z,37.82
2022-08-23T13:59:02.594Z,37.48
2022-08-23T14:01:30.978Z,37.36
2022-08-23T14:03:59.255Z,36.56
2022-08-23T14:06:27.224Z,36.68
2022-08-23T14:08:55.238Z,36.91
2022-08-23T14:11:24.554Z,36.96
2022-08-23T14:13:53.141Z,36.56
2022-08-23T14:16:34.355Z,36.74
2022-08-23T14:20:31.282Z,36.99
2022-08-23T14:21:53.338Z,36.88
2022-08-23T14:24:22.203Z,36.74
2022-08-23T14:26:52.645Z,37.15
2022-08-23T14:29:22.611Z,36.25
2022-08-23T14:31:51.231Z,36.26
2022-08-23T14:34:19.269Z,36.70
2022-08-23T14:39:35.425Z,36.00
2022-08-23T14:42:05.612Z,35.91
2022-08-23T14:44:36.224Z,36.11
2022-08-23T14:47:05.774Z,35.20
2022-08-23T14:49:34.222Z,35.68
2022-08-23T14:52:02.273Z,35.24
2022-08-23T14:54:30.647Z,35.33
2022-08-23T14:56:58.876Z,35.12
2022-08-23T14:59:28.361Z,35.23
2022-08-23T15:01:56.784Z,35.18
2022-08-23T15:04:25.879Z,34.74
2022-08-23T15:07:19.642Z,34.84
2022-08-23T15:09:48.726Z,34.38
2022-08-23T15:15:12.107Z,34.02
2022-08-23T15:17:47.900Z,34.73
2022-08-23T15:20:16.546Z,33.76
2022-08-23T15:22:45.222Z,34.31
2022-08-23T15:25:24.887Z,34.80
2022-08-23T15:27:53.322Z,34.15
2022-08-23T15:30:24.666Z,33.67
2022-08-23T15:32:56.540Z,33.97
2022-08-23T15:35:25.754Z,33.92
2022-08-23T15:37:54.600Z,34.18
2022-08-23T15:40:23.555Z,34.26
2022-08-23T15:42:51.658Z,34.42
2022-08-23T15:45:19.618Z,34.06
2022-08-23T15:47:52.725Z,34.65
2022-08-23T15:50:24.715Z,34.47
2022-08-23T15:52:53.219Z,34.16
2022-08-23T15:55:21.893Z,34.04
2022-08-23T15:57:53.787Z,34.47
2022-08-23T16:00:24.221Z,35.03
2022-08-23T16:03:27.847Z,35.09
2022-08-23T16:05:45.156Z,34.61
2022-08-23T16:08:19.604Z,35.52
2022-08-23T16:10:47.623Z,35.02
2022-08-23T16:13:15.733Z,35.21
2022-08-23T16:15:43.982Z,34.07
2022-08-23T16:18:13.911Z,33.98
2022-08-23T16:20:42.053Z,34.52
2022-08-23T16:23:10.155Z,34.09
2022-08-23T16:25:38.542Z,34.81
2022-08-23T16:28:07.526Z,34.85
2022-08-23T16:30:35.532Z,34.66
2022-08-23T16:33:03.969Z,34.96
2022-08-23T16:35:33.548Z,35.00
2022-08-23T16:38:01.566Z,35.41
2022-08-23T16:40:29.594Z,35.29
2022-08-23T16:42:57.670Z,36.00
2022-08-23T16:45:26.248Z,35.64
2022-08-23T16:47:54.661Z,35.30
2022-08-23T16:50:22.955Z,35.38
2022-08-23T16:52:52.373Z,35.58
2022-08-23T16:55:20.831Z,35.33
2022-08-23T16:57:48.771Z,35.31
2022-08-23T17:00:17.392Z,35.81
2022-08-23T17:02:45.754Z,35.52
2022-08-23T17:05:16.708Z,35.14
2022-08-23T17:07:44.742Z,35.24
2022-08-23T17:10:15.866Z,35.73
2022-08-23T17:12:47.725Z,35.06
2022-08-23T17:15:20.312Z,35.27
2022-08-23T17:17:48.964Z,34.91
2022-08-23T17:20:18.189Z,35.16
2022-08-23T17:22:47.287Z,35.30
2022-08-23T17:25:18.120Z,36.02
2022-08-23T17:27:47.983Z,35.96
2022-08-23T17:30:19.062Z,35.95
2022-08-23T17:32:47.860Z,36.60
2022-08-23T17:35:17.247Z,35.84
2022-08-23T17:37:45.259Z,35.91
2022-08-23T17:40:17.550Z,36.12
2022-08-23T17:42:49.908Z,36.62
2022-08-23T17:45:18.891Z,36.10
2022-08-23T17:47:47.304Z,36.51
2022-08-23T17:50:16.715Z,36.70
2022-08-23T17:52:45.073Z,37.08
2022-08-23T17:55:18.423Z,37.31
2022-08-23T17:57:49.333Z,37.05
2022-08-23T18:00:20.093Z,37.89
2022-08-23T18:02:48.140Z,38.09
2022-08-23T18:05:16.247Z,38.56
2022-08-23T18:07:44.525Z,38.00
2022-08-23T18:10:13.348Z,39.07
2022-08-23T18:12:41.741Z,39.66
2022-08-23T18:15:12.494Z,39.65
2022-08-23T18:17:41.582Z,39.37
2022-08-23T18:20:11.916Z,39.66
2022-08-23T18:22:40.533Z,39.83
2022-08-23T18:25:10.335Z,39.73
2022-08-23T18:27:55.915Z,39.23
2022-08-23T18:30:25.422Z,39.55
2022-08-23T18:32:53.367Z,38.56
2022-08-23T18:35:21.914Z,39.42
2022-08-23T18:37:49.959Z,39.74
2022-08-23T18:40:18.020Z,39.55
2022-08-23T18:42:46.122Z,39.59
2022-08-23T18:45:15.034Z,39.57
2022-08-23T18:47:44.335Z,39.87
2022-08-23T18:50:13.480Z,39.80
2022-08-23T18:52:41.539Z,40.10
2022-08-23T18:55:10.275Z,40.45
2022-08-23T18:57:38.601Z,40.52
2022-08-23T19:00:10.268Z,40.77
2022-08-23T19:02:38.235Z,40.89
2022-08-23T19:05:08.881Z,41.02
2022-08-23T19:07:36.849Z,41.04
2022-08-23T19:10:05.888Z,41.86
2022-08-23T19:12:34.365Z,41.97
2022-08-23T19:15:02.404Z,41.72
2022-08-23T19:17:30.428Z,41.40
2022-08-23T19:19:59.977Z,41.75
2022-08-23T19:22:29.757Z,41.37
2022-08-23T19:24:57.697Z,41.25
2022-08-23T19:27:25.809Z,41.36
2022-08-23T19:29:53.819Z,41.40
2022-08-23T19:32:22.017Z,41.28
2022-08-23T19:34:50.577Z,41.43
2022-08-23T19:37:20.734Z,41.52
2022-08-23T19:39:52.702Z,41.50
2022-08-23T19:42:21.552Z,41.33
2022-08-23T19:44:49.745Z,41.32
2022-08-23T19:47:19.822Z,41.33
2022-08-23T19:49:49.491Z,41.01
2022-08-23T19:52:17.501Z,40.91
2022-08-23T19:54:45.564Z,41.20
2022-08-23T19:57:14.967Z,41.03
2022-08-23T19:59:43.013Z,40.81
2022-08-23T20:02:13.952Z,41.14
2022-08-23T20:04:42.116Z,41.41
2022-08-23T20:07:10.169Z,41.39
2022-08-23T20:09:38.415Z,41.37
2022-08-23T20:12:07.671Z,40.92
2022-08-23T20:14:36.976Z,41.41
2022-08-23T20:17:07.528Z,41.53
2022-08-23T20:19:36.304Z,41.66
2022-08-23T20:22:18.416Z,41.62
2022-08-23T20:24:52.106Z,41.75
2022-08-23T20:27:25.459Z,42.08
2022-08-23T20:30:01.504Z,41.69
2022-08-23T20:32:31.265Z,41.85
2022-08-23T20:34:59.299Z,42.41
2022-08-23T20:37:27.549Z,42.46
2022-08-23T20:39:55.695Z,42.52
2022-08-23T20:42:23.829Z,42.50
2022-08-23T20:44:52.148Z,42.80
2022-08-23T20:47:21.549Z,42.49
2022-08-23T20:49:49.561Z,42.82
2022-08-23T20:52:18.378Z,42.74
2022-08-23T20:54:46.943Z,43.05
2022-08-23T20:57:14.956Z,42.45
2022-08-23T20:59:45.018Z,42.71
2022-08-23T21:02:13.936Z,42.91
2022-08-23T21:04:43.434Z,42.56
2022-08-23T21:07:12.080Z,42.72
2022-08-23T21:09:40.028Z,42.15
2022-08-23T21:12:08.360Z,42.39
2022-08-23T21:14:36.468Z,42.79
2022-08-23T21:17:04.510Z,42.46
2022-08-23T21:19:32.448Z,42.14
2022-08-23T21:22:01.805Z,42.43
2022-08-23T21:24:29.937Z,42.42
2022-08-23T21:26:57.956Z,42.37
2022-08-23T21:29:25.952Z,42.47
2022-08-23T21:31:53.999Z,43.66
2022-08-23T21:34:21.973Z,45.24
2022-08-23T21:36:51.283Z,46.57
2022-08-23T21:39:21.071Z,46.93
2022-08-23T21:41:49.379Z,47.39
2022-08-23T21:44:21.435Z,48.42
2022-08-23T21:46:50.107Z,48.60
2022-08-23T21:49:20.881Z,48.66
2022-08-23T21:51:49.425Z,49.15
2022-08-23T21:54:18.749Z,49.22
2022-08-23T21:56:48.743Z,48.94
2022-08-23T21:59:18.633Z,49.34
2022-08-23T22:01:47.001Z,48.77
2022-08-23T22:04:16.647Z,49.25
2022-08-23T22:06:47.048Z,49.23
2022-08-23T22:09:18.781Z,49.24
2022-08-23T22:11:49.940Z,49.30
2022-08-23T22:14:21.407Z,48.51
2022-08-23T22:16:55.410Z,48.15
2022-08-23T22:19:23.698Z,48.57
2022-08-23T22:21:52.546Z,48.64
2022-08-23T22:24:25.554Z,48.58
2022-08-23T22:26:56.327Z,48.98
2022-08-23T22:29:24.815Z,49.37
2022-08-23T22:31:52.796Z,49.26
2022-08-23T22:34:21.153Z,49.19
2022-08-23T22:36:52.161Z,48.87
2022-08-23T22:39:20.770Z,48.83
2022-08-23T22:41:48.751Z,49.31
2022-08-23T22:44:18.598Z,48.91
2022-08-23T22:46:46.886Z,48.88
2022-08-23T22:49:14.985Z,48.90
2022-08-23T22:51:43.925Z,48.78
2022-08-23T22:54:14.348Z,48.51
2022-08-23T22:56:45.101Z,48.59
2022-08-23T22:59:14.333Z,49.24
2022-08-23T23:01:47.996Z,49.65
2022-08-23T23:04:19.125Z,50.33
2022-08-23T23:06:49.044Z,51.12
2022-08-23T23:09:17.554Z,51.36
2022-08-23T23:11:46.635Z,51.53
2022-08-23T23:14:15.740Z,51.73
2022-08-23T23:16:46.465Z,51.94
2022-08-23T23:19:31.993Z,51.71
2022-08-23T23:22:00.643Z,52.02
2022-08-23T23:24:30.883Z,51.79
2022-08-23T23:26:59.854Z,51.87
2022-08-23T23:29:28.779Z,51.64
2022-08-23T23:31:59.066Z,51.78
2022-08-23T23:34:28.003Z,51.62
2022-08-23T23:36:57.218Z,51.88
2022-08-23T23:39:25.789Z,51.34
2022-08-23T23:41:54.303Z,51.51
2022-08-23T23:44:29.911Z,50.93
2022-08-23T23:47:02.205Z,50.79
2022-08-23T23:49:32.562Z,50.97
2022-08-23T23:52:02.366Z,51.10
2022-08-23T23:54:30.447Z,51.05
2022-08-23T23:56:58.532Z,51.36
2022-08-23T23:59:27.056Z,52.04
